Time;durP1;ratioP1;P1;durP2;ratioP2;P2;SDS_P1;SDS_P2;PMS_P1;PMS_P2;Temp;Humidity;BMP_temperature;BMP_pressure;BME280_temperature;BME280_humidity;BME280_pressure;Samples;Min_cycle;Max_cycle;Signal;HPM_P1;HPM_P2
2020/12/27 00:01:12;;;;;;;4.50;4.10;;;3.20;30.10;;;;;;5031489;28;20188;-69
2020/12/27 00:03:38;;;;;;;5.17;4.67;;;3.00;30.50;;;;;;5031596;28;20672;-68
2020/12/27 00:06:03;;;;;;;4.40;4.03;;;3.10;30.30;;;;;;5031361;28;20180;-68
2020/12/27 00:08:29;;;;;;;5.23;4.83;;;3.00;30.50;;;;;;5031327;28;20205;-69
2020/12/27 00:10:54;;;;;;;7.50;4.83;;;3.10;30.60;;;;;;5031438;28;20177;-69
2020/12/27 00:13:20;;;;;;;5.47;4.23;;;3.00;31.10;;;;;;5031123;28;20192;-68
2020/12/27 00:15:45;;;;;;;4.90;4.50;;;3.10;31.00;;;;;;5031546;28;20176;-68
2020/12/27 00:18:11;;;;;;;6.13;5.53;;;3.20;30.70;;;;;;5031185;28;20204;-68
2020/12/27 00:20:36;;;;;;;6.00;5.43;;;3.20;30.90;;;;;;5031091;28;20183;-67
2020/12/27 00:23:02;;;;;;;7.60;4.40;;;3.20;31.30;;;;;;5031044;28;20196;-69
2020/12/27 00:25:27;;;;;;;4.90;4.50;;;2.80;31.20;;;;;;5031278;28;20176;-70
2020/12/27 00:27:53;;;;;;;5.20;4.80;;;3.00;30.60;;;;;;5030796;28;20222;-70
2020/12/27 00:30:18;;;;;;;4.23;3.83;;;2.80;31.60;;;;;;5031315;28;20250;-70
2020/12/27 00:32:44;;;;;;;4.67;3.97;;;2.80;32.00;;;;;;5031237;28;20165;-70
2020/12/27 00:35:09;;;;;;;4.37;4.00;;;3.10;30.90;;;;;;5030852;28;20196;-71
2020/12/27 00:37:35;;;;;;;4.33;4.03;;;3.20;31.30;;;;;;5030456;28;20175;-71
2020/12/27 00:40:00;;;;;;;7.40;4.10;;;3.00;31.10;;;;;;5030989;28;20176;-70
2020/12/27 00:42:26;;;;;;;5.00;4.60;;;3.10;31.10;;;;;;5030670;28;20291;-70
2020/12/27 00:44:52;;;;;;;4.43;4.10;;;2.90;31.60;;;;;;5030861;28;20185;-69
2020/12/27 00:47:17;;;;;;;5.10;4.60;;;2.90;31.10;;;;;;5030661;28;20809;-70
2020/12/27 00:49:43;;;;;;;4.77;4.37;;;3.00;31.20;;;;;;5030618;28;20172;-70
2020/12/27 00:52:08;;;;;;;6.00;4.43;;;3.10;30.70;;;;;;5030541;28;20588;-69
2020/12/27 00:54:34;;;;;;;6.30;3.87;;;2.70;31.60;;;;;;5030595;28;20227;-69
2020/12/27 00:56:59;;;;;;;4.30;3.90;;;2.50;32.10;;;;;;5029810;28;20558;-68
2020/12/27 00:59:25;;;;;;;4.63;4.23;;;2.70;32.20;;;;;;5030896;28;20255;-69
2020/12/27 01:01:56;;;;;;;7.03;6.33;;;2.60;31.90;;;;;;5030907;28;20222;-69
2020/12/27 01:04:23;;;;;;;4.50;4.10;;;2.70;33.10;;;;;;5030434;28;20284;-70
2020/12/27 01:06:48;;;;;;;4.70;4.27;;;2.90;31.90;;;;;;5030577;28;20922;-69
2020/12/27 01:09:14;;;;;;;4.43;4.10;;;2.40;32.40;;;;;;5030692;28;20413;-69
2020/12/27 01:11:40;;;;;;;5.00;4.27;;;2.60;32.60;;;;;;5031064;28;20172;-68
2020/12/27 01:14:06;;;;;;;5.90;4.97;;;2.40;33.00;;;;;;5030822;28;20438;-69
2020/12/27 01:16:31;;;;;;;4.00;3.70;;;2.60;32.50;;;;;;5030875;28;20168;-69
2020/12/27 01:18:57;;;;;;;5.53;4.97;;;2.60;32.10;;;;;;5030647;28;20176;-69
2020/12/27 01:21:24;;;;;;;4.67;4.37;;;2.80;32.20;;;;;;5030833;28;20540;-69
2020/12/27 01:23:50;;;;;;;4.80;4.40;;;3.00;31.80;;;;;;5030627;28;20291;-69
2020/12/27 01:26:15;;;;;;;4.80;4.40;;;3.10;31.50;;;;;;5030833;28;20435;-69
2020/12/27 01:28:41;;;;;;;5.27;4.43;;;3.10;31.60;;;;;;5030504;28;20297;-69
2020/12/27 01:31:06;;;;;;;5.10;4.60;;;3.10;31.50;;;;;;5030763;28;20184;-69
2020/12/27 01:33:32;;;;;;;5.33;4.07;;;3.00;31.50;;;;;;5030710;28;20624;-69
2020/12/27 01:35:58;;;;;;;4.97;4.47;;;3.30;31.90;;;;;;5030708;28;20222;-69
2020/12/27 01:38:23;;;;;;;4.47;4.10;;;3.00;31.70;;;;;;5030523;28;20209;-69
2020/12/27 01:40:49;;;;;;;5.97;5.07;;;3.30;31.30;;;;;;5030650;28;20515;-69
2020/12/27 01:43:14;;;;;;;5.03;4.50;;;2.80;32.10;;;;;;5030646;28;20192;-69
2020/12/27 01:45:40;;;;;;;5.10;4.70;;;3.10;32.20;;;;;;5030583;28;20737;-69
2020/12/27 01:48:11;;;;;;;6.30;4.83;;;2.90;32.20;;;;;;5030309;28;20243;-69
2020/12/27 01:50:37;;;;;;;6.10;5.00;;;3.00;32.70;;;;;;5034198;28;20230;-69
2020/12/27 01:53:04;;;;;;;5.20;4.70;;;2.90;32.40;;;;;;5034262;28;20410;-69
2020/12/27 01:55:31;;;;;;;8.03;5.00;;;2.60;33.20;;;;;;5034311;28;20562;-69
2020/12/27 01:58:03;;;;;;;4.97;4.57;;;2.70;33.40;;;;;;5034259;28;20414;-69
2020/12/27 02:00:28;;;;;;;4.20;3.80;;;2.80;32.70;;;;;;5034222;28;20873;-69
2020/12/27 02:02:54;;;;;;;5.53;5.00;;;2.50;33.20;;;;;;5034094;28;20508;-69
2020/12/27 02:05:19;;;;;;;5.30;4.80;;;2.60;33.40;;;;;;5034002;28;20173;-69
2020/12/27 02:07:45;;;;;;;5.13;4.63;;;2.60;33.40;;;;;;5033833;28;20919;-69
2020/12/27 02:10:11;;;;;;;4.30;4.00;;;2.50;33.80;;;;;;5034076;28;20239;-69
2020/12/27 02:12:37;;;;;;;4.67;4.10;;;2.60;33.70;;;;;;5034009;28;20206;-69
2020/12/27 02:15:04;;;;;;;4.40;4.00;;;2.70;33.70;;;;;;5033898;28;21084;-69
2020/12/27 02:17:30;;;;;;;4.77;4.33;;;2.50;33.90;;;;;;5033690;28;20175;-69
2020/12/27 02:19:55;;;;;;;4.77;4.30;;;2.50;34.00;;;;;;5033784;28;20496;-69
2020/12/27 02:22:21;;;;;;;5.93;5.33;;;2.70;33.80;;;;;;5033672;28;20206;-69
2020/12/27 02:24:48;;;;;;;4.77;4.37;;;2.40;34.10;;;;;;5033721;28;20609;-69
2020/12/27 02:27:14;;;;;;;5.63;5.13;;;2.80;33.70;;;;;;5033490;28;20222;-69
2020/12/27 02:29:40;;;;;;;5.00;4.50;;;2.90;32.80;;;;;;5033682;28;20212;-69
2020/12/27 02:32:05;;;;;;;4.00;3.60;;;2.60;33.30;;;;;;5033704;28;20536;-68
2020/12/27 02:34:31;;;;;;;4.97;4.33;;;2.30;32.90;;;;;;5033606;28;20267;-69
2020/12/27 02:36:57;;;;;;;3.90;3.60;;;2.00;33.50;;;;;;5033423;28;20245;-69
2020/12/27 02:39:22;;;;;;;6.00;4.80;;;2.00;33.40;;;;;;5033378;28;20226;-69
2020/12/27 02:41:49;;;;;;;4.80;4.10;;;1.80;34.30;;;;;;5033585;28;20169;-69
2020/12/27 02:44:15;;;;;;;4.80;3.92;;;1.80;34.20;;;;;;5033496;28;20200;-69
2020/12/27 02:46:41;;;;;;;5.38;4.30;;;1.90;34.20;;;;;;5033349;28;20192;-70
2020/12/27 02:49:06;;;;;;;5.10;4.27;;;2.10;34.80;;;;;;5033079;28;20573;-69
2020/12/27 02:51:32;;;;;;;4.47;2.90;;;2.20;33.40;;;;;;5033341;28;20180;-69
2020/12/27 02:53:58;;;;;;;4.60;4.20;;;2.00;32.90;;;;;;5033290;28;20271;-69
2020/12/27 02:56:28;;;;;;;4.53;3.95;;;1.90;34.50;;;;;;5033445;28;20177;-69
2020/12/27 02:58:56;;;;;;;3.80;3.50;;;1.90;33.50;;;;;;5033077;28;20314;-69
2020/12/27 03:01:21;;;;;;;5.13;4.72;;;1.80;33.20;;;;;;5032886;28;20414;-70
2020/12/27 03:03:47;;;;;;;4.47;4.10;;;1.70;34.10;;;;;;5033063;28;20221;-69
2020/12/27 03:06:13;;;;;;;5.00;4.03;;;1.60;34.10;;;;;;5033109;28;20169;-69
2020/12/27 03:08:39;;;;;;;4.20;3.83;;;1.70;34.00;;;;;;5032836;28;20206;-69
2020/12/27 03:11:05;;;;;;;4.80;4.47;;;1.80;33.70;;;;;;5033018;28;20171;-68
2020/12/27 03:13:32;;;;;;;5.30;4.90;;;1.80;34.20;;;;;;5033016;28;20193;-69
2020/12/27 03:15:59;;;;;;;4.33;4.03;;;1.90;33.80;;;;;;5032885;28;20578;-69
2020/12/27 03:18:26;;;;;;;5.97;5.38;;;1.60;34.00;;;;;;5032565;28;20902;-69
2020/12/27 03:20:51;;;;;;;4.60;4.20;;;1.70;35.20;;;;;;5032786;28;20254;-69
2020/12/27 03:23:17;;;;;;;5.67;4.90;;;1.90;33.20;;;;;;5032512;28;20211;-69
2020/12/27 03:25:43;;;;;;;5.87;4.47;;;1.80;33.70;;;;;;5032723;28;20204;-70
2020/12/27 03:28:10;;;;;;;5.50;5.10;;;1.70;34.20;;;;;;5032340;28;20212;-69
2020/12/27 03:30:35;;;;;;;4.53;4.13;;;1.80;33.90;;;;;;5032566;28;20180;-68
2020/12/27 03:33:01;;;;;;;4.60;4.20;;;2.00;33.80;;;;;;5032338;28;20762;-69
2020/12/27 03:35:26;;;;;;;4.30;4.00;;;1.90;33.90;;;;;;5032486;28;20514;-69
2020/12/27 03:37:52;;;;;;;5.00;4.60;;;1.90;32.90;;;;;;5032341;28;20184;-68
2020/12/27 03:40:17;;;;;;;6.33;5.30;;;2.10;33.00;;;;;;5032490;28;20185;-67
2020/12/27 03:42:43;;;;;;;4.83;4.43;;;2.10;32.90;;;;;;5032431;28;20172;-67
2020/12/27 03:45:09;;;;;;;6.03;4.80;;;1.90;33.10;;;;;;5032265;28;20196;-67
2020/12/27 03:47:34;;;;;;;5.40;4.77;;;1.90;33.40;;;;;;5031980;28;20260;-67
2020/12/27 03:50:00;;;;;;;4.90;4.40;;;2.00;32.60;;;;;;5032297;28;20751;-67
2020/12/27 03:52:25;;;;;;;4.50;4.10;;;1.90;33.20;;;;;;5032215;28;20664;-68
2020/12/27 03:54:51;;;;;;;6.53;4.90;;;1.80;33.70;;;;;;5032186;28;20185;-68
2020/12/27 03:57:16;;;;;;;4.70;4.30;;;1.80;33.40;;;;;;5031978;28;20184;-67
2020/12/27 03:59:42;;;;;;;5.80;5.30;;;1.70;33.70;;;;;;5032100;28;20181;-67
2020/12/27 04:02:07;;;;;;;4.80;4.40;;;1.50;34.00;;;;;;5031895;28;20547;-68
2020/12/27 04:04:33;;;;;;;5.43;4.93;;;1.50;34.50;;;;;;5031995;28;20547;-68
2020/12/27 04:06:58;;;;;;;6.80;4.93;;;1.50;34.40;;;;;;5031755;28;20226;-67
2020/12/27 04:09:24;;;;;;;5.13;4.63;;;1.60;34.70;;;;;;5031863;28;20200;-67
2020/12/27 04:11:49;;;;;;;4.43;4.13;;;1.60;33.60;;;;;;5031012;28;20628;-68
2020/12/27 04:14:15;;;;;;;6.33;5.23;;;1.30;34.30;;;;;;5031733;28;20199;-68
2020/12/27 04:16:40;;;;;;;6.30;4.97;;;1.20;35.00;;;;;;5031635;28;20177;-67
2020/12/27 04:19:06;;;;;;;5.53;4.77;;;1.40;34.10;;;;;;5031446;28;20670;-66
2020/12/27 04:21:32;;;;;;;5.67;3.90;;;1.50;34.00;;;;;;5031547;28;20200;-68
2020/12/27 04:23:57;;;;;;;3.80;3.50;;;1.10;34.80;;;;;;5031390;28;20213;-67
2020/12/27 04:26:24;;;;;;;5.37;4.87;;;1.20;34.60;;;;;;5031507;28;20169;-67
2020/12/27 04:28:49;;;;;;;4.70;3.90;;;1.20;35.20;;;;;;5031246;28;20587;-67
2020/12/27 04:31:18;;;;;;;4.57;4.17;;;1.30;35.10;;;;;;5031359;28;20172;-68
2020/12/27 04:33:44;;;;;;;4.00;3.65;;;1.30;34.60;;;;;;5031274;28;20188;-67
2020/12/27 04:36:10;;;;;;;5.93;4.63;;;1.30;34.70;;;;;;5031344;28;20183;-67
2020/12/27 04:38:35;;;;;;;4.83;3.67;;;1.30;34.50;;;;;;5031116;28;20974;-67
2020/12/27 04:41:02;;;;;;;4.50;4.10;;;1.20;34.40;;;;;;5031262;28;20418;-67
2020/12/27 04:43:27;;;;;;;4.65;4.25;;;1.40;35.50;;;;;;5031125;28;20204;-67
2020/12/27 04:45:59;;;;;;;5.20;4.70;;;1.70;34.80;;;;;;5031106;28;20177;-67
2020/12/27 04:48:26;;;;;;;4.95;4.55;;;2.10;33.20;;;;;;5030901;28;20233;-66
2020/12/27 04:50:52;;;;;;;6.13;4.85;;;2.40;31.80;;;;;;5031153;28;20179;-67
2020/12/27 04:53:19;;;;;;;5.15;4.65;;;2.10;32.00;;;;;;5031032;28;20742;-66
2020/12/27 04:55:45;;;;;;;4.63;4.22;;;2.00;32.30;;;;;;5031040;28;20213;-67
2020/12/27 04:58:17;;;;;;;4.60;4.20;;;2.10;32.50;;;;;;5030870;28;20176;-67
2020/12/27 05:00:42;;;;;;;5.10;4.68;;;2.00;32.50;;;;;;5031013;28;20171;-67
2020/12/27 05:03:08;;;;;;;4.60;4.20;;;1.80;33.10;;;;;;5030978;28;20560;-67
2020/12/27 05:05:33;;;;;;;5.07;4.67;;;1.80;33.10;;;;;;5031189;28;20259;-67
2020/12/27 05:07:59;;;;;;;4.77;4.27;;;1.80;33.80;;;;;;5030705;28;20199;-67
2020/12/27 05:10:24;;;;;;;4.77;4.37;;;2.00;32.60;;;;;;5030979;28;20169;-68
2020/12/27 05:12:49;;;;;;;5.73;5.23;;;2.10;32.60;;;;;;5030926;28;20172;-67
2020/12/27 05:15:15;;;;;;;4.77;4.37;;;2.30;32.30;;;;;;5030945;28;20175;-67
2020/12/27 05:17:40;;;;;;;5.00;4.50;;;2.20;32.20;;;;;;5030830;28;20269;-67
2020/12/27 05:20:12;;;;;;;5.77;4.60;;;2.50;32.80;;;;;;5031085;28;20527;-67
2020/12/27 05:22:39;;;;;;;5.93;5.43;;;2.60;31.60;;;;;;5031309;28;20203;-67
2020/12/27 05:25:05;;;;;;;6.10;5.55;;;2.60;31.30;;;;;;5034866;28;20199;-67
2020/12/27 05:27:31;;;;;;;6.10;5.50;;;2.70;31.70;;;;;;5034718;28;20191;-67
2020/12/27 05:30:00;;;;;;;5.05;4.65;;;2.90;31.10;;;;;;5034720;28;20168;-67
2020/12/27 05:32:29;;;;;;;5.65;5.15;;;2.80;31.50;;;;;;5034879;28;20539;-67
2020/12/27 05:34:55;;;;;;;5.57;5.07;;;2.50;32.60;;;;;;5034672;28;20662;-67
2020/12/27 05:37:22;;;;;;;4.50;4.10;;;2.40;31.80;;;;;;5034528;28;20510;-67
2020/12/27 05:39:48;;;;;;;5.65;5.03;;;2.40;32.30;;;;;;5034583;28;20192;-68
2020/12/27 05:42:13;;;;;;;6.60;5.60;;;1.90;33.80;;;;;;5034505;28;20180;-67
2020/12/27 05:44:39;;;;;;;5.63;5.00;;;2.10;34.00;;;;;;5034434;28;20713;-68
2020/12/27 05:47:04;;;;;;;5.30;4.80;;;2.00;33.20;;;;;;5034239;28;20199;-67
2020/12/27 05:49:30;;;;;;;5.43;4.83;;;1.80;33.70;;;;;;5034342;28;20172;-68
2020/12/27 05:51:57;;;;;;;5.10;4.67;;;1.90;33.80;;;;;;5034317;28;20196;-68
2020/12/27 05:54:31;;;;;;;4.93;4.43;;;1.90;34.20;;;;;;5034134;28;20435;-68
2020/12/27 05:56:58;;;;;;;7.80;4.53;;;1.60;35.00;;;;;;5034259;28;20176;-67
2020/12/27 05:59:32;;;;;;;4.80;4.40;;;1.80;35.30;;;;;;5034248;28;20199;-68
2020/12/27 06:01:59;;;;;;;5.43;4.10;;;1.70;35.30;;;;;;5034191;28;20598;-67
2020/12/27 06:04:56;;;;;;;5.50;4.97;;;1.70;35.40;;;;;;5034094;28;20196;-68
2020/12/27 06:07:45;;;;;;;4.10;3.80;;;2.20;34.20;;;;;;5033851;28;20196;-68
2020/12/27 06:10:21;;;;;;;4.95;4.55;;;2.20;34.10;;;;;;5034103;28;20250;-68
2020/12/27 06:13:24;;;;;;;4.68;4.28;;;1.80;34.60;;;;;;5033984;28;20317;-68
2020/12/27 06:15:56;;;;;;;8.02;5.53;;;2.20;34.40;;;;;;5034021;28;20177;-68
2020/12/27 06:18:26;;;;;;;6.75;4.90;;;2.00;34.90;;;;;;5033842;28;20791;-67
2020/12/27 06:21:05;;;;;;;5.40;5.00;;;2.10;34.90;;;;;;5034083;28;20241;-67
2020/12/27 06:23:32;;;;;;;4.75;4.25;;;1.80;35.00;;;;;;5033861;28;20294;-67
2020/12/27 06:26:00;;;;;;;4.53;4.13;;;1.60;35.70;;;;;;5033842;28;20184;-67
2020/12/27 06:28:28;;;;;;;5.50;4.93;;;1.70;35.80;;;;;;5033622;28;20698;-68
2020/12/27 06:30:57;;;;;;;4.97;4.57;;;2.00;36.00;;;;;;5033727;28;20229;-67
2020/12/27 06:33:35;;;;;;;5.30;4.85;;;2.20;34.80;;;;;;5033673;28;20192;-68
2020/12/27 06:36:02;;;;;;;4.65;4.05;;;2.10;34.20;;;;;;5032979;28;20258;-67
2020/12/27 06:38:31;;;;;;;4.40;4.00;;;1.90;34.50;;;;;;5033530;28;20265;-68
2020/12/27 06:41:06;;;;;;;4.50;4.10;;;1.90;35.90;;;;;;5033772;28;20169;-67
2020/12/27 06:43:40;;;;;;;4.80;4.40;;;1.80;35.30;;;;;;5033760;28;20279;-67
2020/12/27 06:46:27;;;;;;;4.15;3.70;;;2.00;35.10;;;;;;5033711;28;20254;-67
2020/12/27 06:49:13;;;;;;;6.75;5.03;;;1.90;35.10;;;;;;5033221;28;20207;-67
2020/12/27 06:51:40;;;;;;;5.30;4.80;;;2.00;35.80;;;;;;5033436;28;20188;-67
2020/12/27 06:54:05;;;;;;;6.35;4.03;;;2.10;35.00;;;;;;5033267;28;20184;-67
2020/12/27 06:56:45;;;;;;;4.90;4.60;;;2.30;34.50;;;;;;5033406;28;20204;-67
2020/12/27 06:59:10;;;;;;;4.68;4.22;;;2.20;34.00;;;;;;5032987;28;20219;-67
2020/12/27 07:01:36;;;;;;;4.90;4.13;;;2.20;33.80;;;;;;5033092;28;20211;-68
2020/12/27 07:04:20;;;;;;;4.45;4.05;;;2.10;34.20;;;;;;5033078;28;20196;-68
2020/12/27 07:06:48;;;;;;;4.53;4.13;;;2.10;34.30;;;;;;5033006;28;20183;-69
2020/12/27 07:09:25;;;;;;;5.25;4.00;;;1.90;34.80;;;;;;5028939;28;20832;-68
2020/12/27 07:12:06;;;;;;;7.72;4.10;;;2.00;35.20;;;;;;5032188;28;20174;-68
2020/12/27 07:14:38;;;;;;;4.55;3.78;;;2.10;34.60;;;;;;5032455;28;20254;-69
2020/12/27 07:17:06;;;;;;;5.00;4.20;;;2.00;34.70;;;;;;5039252;28;20267;-68
2020/12/27 07:19:36;;;;;;;6.85;4.50;;;2.10;34.40;;;;;;5052369;28;20635;-70
2020/12/27 07:22:04;;;;;;;5.20;4.70;;;1.90;35.10;;;;;;5051605;28;20191;-69
2020/12/27 07:24:33;;;;;;;4.15;2.72;;;2.00;34.50;;;;;;5051994;28;20669;-68
2020/12/27 07:27:02;;;;;;;5.95;4.30;;;1.70;35.30;;;;;;5052122;28;20171;-69
2020/12/27 07:29:28;;;;;;;4.53;4.22;;;1.50;36.20;;;;;;5052094;28;20224;-68
2020/12/27 07:31:55;;;;;;;6.18;4.68;;;1.60;35.70;;;;;;5051746;28;20670;-69
2020/12/27 07:34:26;;;;;;;5.85;5.13;;;1.90;40.50;;;;;;5052037;28;20195;-69
2020/12/27 07:37:05;;;;;;;5.23;4.73;;;4.50;50.60;;;;;;5052001;28;20171;-69
2020/12/27 07:39:54;;;;;;;4.50;4.17;;;6.00;52.40;;;;;;5051876;28;20410;-68
2020/12/27 07:42:22;;;;;;;4.67;4.27;;;4.30;28.70;;;;;;5052067;28;20414;-68
2020/12/27 07:44:48;;;;;;;4.50;4.10;;;2.70;33.60;;;;;;5048798;28;20442;-68
2020/12/27 07:47:14;;;;;;;4.80;4.40;;;2.40;34.20;;;;;;5034628;28;20569;-68
2020/12/27 07:49:40;;;;;;;5.10;4.70;;;2.20;35.10;;;;;;5034521;28;20422;-68
2020/12/27 07:52:05;;;;;;;6.17;5.30;;;1.90;35.80;;;;;;5034754;28;20188;-68
2020/12/27 07:54:31;;;;;;;4.63;4.23;;;2.00;36.10;;;;;;5031505;28;20671;-68
2020/12/27 07:56:56;;;;;;;5.30;4.60;;;1.90;35.90;;;;;;5031848;28;20561;-68
2020/12/27 07:59:22;;;;;;;4.63;4.20;;;1.90;35.90;;;;;;5031744;28;20234;-69
2020/12/27 08:01:47;;;;;;;4.97;4.20;;;1.80;35.90;;;;;;5035511;28;20180;-69
2020/12/27 08:04:14;;;;;;;4.77;4.43;;;1.60;36.50;;;;;;5039847;28;20199;-69
2020/12/27 08:06:41;;;;;;;3.85;3.55;;;1.60;36.50;;;;;;5041545;28;20694;-68
2020/12/27 08:09:11;;;;;;;5.20;4.72;;;1.80;36.20;;;;;;5039298;28;20223;-69
2020/12/27 08:11:42;;;;;;;6.50;5.18;;;1.90;35.90;;;;;;5039208;28;20582;-69
2020/12/27 08:14:09;;;;;;;4.57;4.10;;;1.80;35.90;;;;;;5040012;28;20206;-69
2020/12/27 08:16:40;;;;;;;4.00;3.70;;;1.90;35.10;;;;;;5040757;28;20161;-68
2020/12/27 08:19:13;;;;;;;4.38;3.97;;;2.00;35.10;;;;;;5039847;28;20692;-68
2020/12/27 08:21:41;;;;;;;5.28;4.80;;;2.20;34.70;;;;;;5039029;28;20183;-68
2020/12/27 08:24:09;;;;;;;4.80;4.40;;;2.60;36.40;;;;;;5039641;28;20614;-68
2020/12/27 08:26:40;;;;;;;4.25;3.85;;;2.20;34.70;;;;;;5040933;28;20183;-68
2020/12/27 08:29:20;;;;;;;8.00;4.30;;;2.30;34.20;;;;;;5039758;28;20246;-67
2020/12/27 08:31:48;;;;;;;4.97;4.27;;;2.10;34.40;;;;;;5040778;28;20736;-69
2020/12/27 08:34:15;;;;;;;5.18;4.53;;;2.30;35.40;;;;;;5031014;28;20426;-68
2020/12/27 08:36:47;;;;;;;4.90;4.47;;;2.00;34.60;;;;;;5030692;28;20567;-68
2020/12/27 08:39:36;;;;;;;4.10;3.80;;;1.70;35.80;;;;;;5028457;28;20526;-66
2020/12/27 08:42:05;;;;;;;4.80;4.45;;;2.00;35.50;;;;;;5030264;28;20228;-67
2020/12/27 08:44:51;;;;;;;5.13;4.60;;;2.10;34.30;;;;;;5029375;28;20362;-66
2020/12/27 08:47:46;;;;;;;4.78;4.38;;;2.00;35.10;;;;;;5028619;28;20323;-66
2020/12/27 08:50:24;;;;;;;6.03;4.63;;;1.90;35.10;;;;;;5029216;28;20322;-66
2020/12/27 08:52:55;;;;;;;4.80;4.43;;;2.10;36.10;;;;;;5029718;28;20202;-67
2020/12/27 08:55:27;;;;;;;4.80;4.40;;;2.10;36.10;;;;;;5029848;28;20766;-66
2020/12/27 08:57:57;;;;;;;5.00;4.50;;;1.90;38.30;;;;;;5029920;28;20187;-66
2020/12/27 09:00:31;;;;;;;5.30;4.78;;;1.70;36.40;;;;;;5030638;28;20623;-66
2020/12/27 09:02:58;;;;;;;5.97;5.40;;;2.00;36.10;;;;;;5030342;28;20182;-66
2020/12/27 09:05:32;;;;;;;6.35;5.10;;;2.10;36.10;;;;;;5030679;28;20183;-67
2020/12/27 09:07:58;;;;;;;6.10;5.60;;;2.40;35.10;;;;;;5030505;28;20195;-67
2020/12/27 09:10:28;;;;;;;9.67;5.27;;;2.20;35.20;;;;;;5030225;28;20169;-67
2020/12/27 09:13:13;;;;;;;5.38;4.88;;;2.60;35.20;;;;;;5030434;28;20403;-66
2020/12/27 09:15:46;;;;;;;4.45;4.15;;;2.20;33.80;;;;;;5030297;28;20179;-66
2020/12/27 09:18:16;;;;;;;5.38;4.88;;;2.10;34.00;;;;;;5030422;28;20645;-67
2020/12/27 09:20:43;;;;;;;4.93;4.53;;;2.40;35.00;;;;;;5030663;28;20183;-67
2020/12/27 09:23:15;;;;;;;4.23;3.87;;;2.50;34.80;;;;;;5029869;28;20214;-67
2020/12/27 09:25:42;;;;;;;4.70;4.17;;;2.70;32.90;;;;;;5030276;28;20414;-67
2020/12/27 09:28:21;;;;;;;5.38;4.93;;;2.40;33.20;;;;;;5030226;28;20901;-66
2020/12/27 09:31:00;;;;;;;5.65;5.25;;;2.50;32.70;;;;;;5030168;28;20295;-67
2020/12/27 09:33:27;;;;;;;5.50;5.00;;;2.70;32.30;;;;;;5030275;28;20558;-66
2020/12/27 09:35:57;;;;;;;6.03;4.87;;;2.60;32.50;;;;;;5030382;28;20665;-66
2020/12/27 09:38:27;;;;;;;5.88;4.80;;;2.70;32.50;;;;;;5029797;28;20498;-67
2020/12/27 09:41:09;;;;;;;6.10;4.87;;;2.50;32.50;;;;;;5030259;28;20169;-66
2020/12/27 09:43:52;;;;;;;5.10;4.70;;;2.70;32.10;;;;;;5030265;28;20439;-67
2020/12/27 09:46:40;;;;;;;5.87;5.37;;;3.00;31.80;;;;;;5030032;28;20498;-68
2020/12/27 09:49:19;;;;;;;18.23;16.40;;;3.00;31.30;;;;;;5030067;28;20455;-66
2020/12/27 09:51:45;;;;;;;5.90;5.40;;;3.10;31.30;;;;;;5030324;28;20395;-65
2020/12/27 09:54:11;;;;;;;4.80;4.23;;;3.20;31.00;;;;;;5029771;28;20435;-66
2020/12/27 09:56:43;;;;;;;5.23;4.77;;;3.00;30.80;;;;;;5029827;28;20426;-65
2020/12/27 09:59:09;;;;;;;6.20;5.43;;;3.10;31.30;;;;;;5040439;28;20711;-66
2020/12/27 10:01:35;;;;;;;4.80;4.30;;;3.20;31.50;;;;;;5049620;28;20411;-66
2020/12/27 10:04:00;;;;;;;5.23;4.73;;;3.40;30.80;;;;;;5049960;28;20427;-66
2020/12/27 10:06:26;;;;;;;4.27;3.87;;;3.50;30.10;;;;;;5049980;28;20190;-66
2020/12/27 10:08:51;;;;;;;4.77;4.33;;;3.80;29.60;;;;;;5049409;28;20200;-66
2020/12/27 10:11:17;;;;;;;5.30;4.83;;;3.60;29.60;;;;;;5052898;28;20251;-66
2020/12/27 10:13:42;;;;;;;6.33;5.77;;;4.00;29.70;;;;;;5053578;28;20191;-66
2020/12/27 10:16:08;;;;;;;5.40;4.87;;;3.90;29.60;;;;;;5053451;28;20251;-66
2020/12/27 10:18:33;;;;;;;5.33;4.93;;;3.90;29.90;;;;;;5053364;28;20176;-66
2020/12/27 10:20:59;;;;;;;5.80;5.03;;;3.90;29.40;;;;;;5053566;28;20172;-66
2020/12/27 10:23:24;;;;;;;6.73;6.13;;;4.00;29.20;;;;;;5053223;28;20705;-66
2020/12/27 10:25:50;;;;;;;4.80;4.40;;;3.90;29.10;;;;;;5053410;28;20263;-66
2020/12/27 10:28:15;;;;;;;6.73;5.27;;;3.70;29.60;;;;;;5053451;28;20207;-67
2020/12/27 10:30:40;;;;;;;5.10;4.60;;;3.50;29.70;;;;;;5053468;28;20225;-66
2020/12/27 10:33:06;;;;;;;5.73;5.17;;;3.60;29.60;;;;;;5053572;28;20176;-66
2020/12/27 10:35:31;;;;;;;5.17;4.77;;;3.50;29.90;;;;;;5053432;28;20674;-67
2020/12/27 10:37:57;;;;;;;5.60;5.07;;;3.50;30.10;;;;;;5052711;28;20182;-67
2020/12/27 10:40:22;;;;;;;5.20;4.60;;;3.60;29.80;;;;;;5053191;28;20180;-67
2020/12/27 10:42:48;;;;;;;6.73;5.13;;;3.60;29.80;;;;;;5053039;28;20195;-67
2020/12/27 10:45:13;;;;;;;5.33;4.67;;;3.80;29.30;;;;;;5052884;28;20221;-66
2020/12/27 10:47:39;;;;;;;5.13;4.63;;;3.90;28.90;;;;;;5052944;28;20210;-65
2020/12/27 10:50:05;;;;;;;5.20;4.77;;;3.90;29.10;;;;;;5052816;28;20630;-66
2020/12/27 10:52:31;;;;;;;7.63;4.60;;;3.80;29.00;;;;;;5052604;28;20303;-65
2020/12/27 10:54:56;;;;;;;4.67;4.27;;;3.60;29.10;;;;;;5052652;28;20899;-66
2020/12/27 10:57:22;;;;;;;6.00;5.50;;;3.60;29.50;;;;;;5052673;28;20559;-66
2020/12/27 10:59:47;;;;;;;5.00;4.60;;;3.80;29.30;;;;;;5035118;28;20307;-67
2020/12/27 11:02:13;;;;;;;5.10;4.63;;;4.10;28.70;;;;;;5032119;28;20624;-66
2020/12/27 11:04:38;;;;;;;4.43;4.13;;;3.90;29.00;;;;;;5032513;28;20199;-66
2020/12/27 11:07:04;;;;;;;4.90;4.50;;;3.70;28.80;;;;;;5032393;28;20181;-66
2020/12/27 11:09:29;;;;;;;5.77;4.43;;;3.80;28.70;;;;;;5032462;28;20205;-66
2020/12/27 11:11:55;;;;;;;5.60;4.90;;;4.10;29.00;;;;;;5032567;28;20221;-66
2020/12/27 11:14:20;;;;;;;5.50;5.00;;;4.20;28.30;;;;;;5032375;28;20564;-66
2020/12/27 11:16:49;;;;;;;5.30;4.80;;;4.10;28.20;;;;;;5032767;28;20177;-65
2020/12/27 11:19:14;;;;;;;6.00;5.40;;;4.20;28.30;;;;;;5032675;28;20203;-66
2020/12/27 11:21:47;;;;;;;5.97;5.40;;;4.00;28.70;;;;;;5032113;28;20415;-65
2020/12/27 11:24:14;;;;;;;6.00;5.27;;;3.80;29.30;;;;;;5032581;28;20204;-66
2020/12/27 11:26:39;;;;;;;5.80;5.30;;;4.00;29.50;;;;;;5032481;28;20791;-66
2020/12/27 11:29:04;;;;;;;6.40;5.80;;;4.00;30.20;;;;;;5031767;28;20455;-66
2020/12/27 11:31:30;;;;;;;6.47;5.87;;;4.00;29.70;;;;;;5032283;28;20180;-66
2020/12/27 11:33:55;;;;;;;6.17;5.57;;;4.10;29.70;;;;;;5032136;28;20635;-65
2020/12/27 11:36:21;;;;;;;6.43;5.80;;;4.00;29.50;;;;;;5031860;28;20223;-66
2020/12/27 11:38:46;;;;;;;6.40;5.80;;;4.30;29.60;;;;;;5031845;28;20256;-66
2020/12/27 11:41:13;;;;;;;5.80;5.20;;;4.20;29.60;;;;;;5032161;28;20218;-66
2020/12/27 11:43:39;;;;;;;5.97;5.40;;;4.30;29.20;;;;;;5031721;28;20199;-67
2020/12/27 11:46:04;;;;;;;7.00;6.30;;;4.30;29.80;;;;;;5032009;28;20407;-67
2020/12/27 11:48:30;;;;;;;6.30;5.70;;;4.30;29.50;;;;;;5031728;28;20814;-66
2020/12/27 11:50:56;;;;;;;6.70;6.10;;;4.40;29.80;;;;;;5031609;28;20180;-66
2020/12/27 11:53:21;;;;;;;60.30;55.00;;;4.30;29.40;;;;;;5031669;28;20735;-66
2020/12/27 11:55:47;;;;;;;6.40;5.80;;;4.40;29.90;;;;;;5031698;28;20165;-65
2020/12/27 11:58:12;;;;;;;6.20;5.70;;;4.10;29.80;;;;;;5032163;28;20226;-65
2020/12/27 12:00:38;;;;;;;5.80;5.03;;;4.10;30.00;;;;;;5031449;28;20242;-66
2020/12/27 12:03:03;;;;;;;6.27;5.77;;;4.00;30.80;;;;;;5031798;28;20256;-66
2020/12/27 12:05:29;;;;;;;7.73;5.87;;;4.10;30.20;;;;;;5031808;28;20691;-65
2020/12/27 12:07:54;;;;;;;6.70;6.00;;;4.10;30.90;;;;;;5031150;28;20200;-66
2020/12/27 12:10:20;;;;;;;8.20;6.40;;;4.40;29.90;;;;;;5031683;28;20177;-65
2020/12/27 12:12:46;;;;;;;7.20;5.80;;;4.30;30.20;;;;;;5031742;28;20722;-65
2020/12/27 12:15:11;;;;;;;6.63;6.03;;;4.30;30.80;;;;;;5031326;28;20196;-65
2020/12/27 12:17:37;;;;;;;7.93;7.17;;;4.40;30.80;;;;;;5031451;28;20514;-65
2020/12/27 12:20:02;;;;;;;7.57;6.83;;;4.50;30.10;;;;;;5031359;28;20259;-65
2020/12/27 12:22:28;;;;;;;6.23;5.63;;;4.30;31.60;;;;;;5030913;28;20211;-65
2020/12/27 12:24:53;;;;;;;7.20;6.50;;;3.90;31.40;;;;;;5031269;28;20203;-66
2020/12/27 12:27:19;;;;;;;8.60;7.23;;;3.70;32.40;;;;;;5030933;28;20289;-67
2020/12/27 12:29:44;;;;;;;7.30;6.60;;;4.10;31.90;;;;;;5031408;28;20239;-67
2020/12/27 12:32:10;;;;;;;7.67;6.40;;;4.30;31.60;;;;;;5030739;28;20295;-65
2020/12/27 12:34:36;;;;;;;6.53;6.03;;;4.40;31.40;;;;;;5030903;28;20495;-67
2020/12/27 12:37:01;;;;;;;7.70;7.07;;;4.30;32.00;;;;;;5030649;28;20241;-66
2020/12/27 12:39:27;;;;;;;6.40;5.80;;;4.40;32.10;;;;;;5031177;28;20203;-66
2020/12/27 12:41:56;;;;;;;7.30;6.60;;;4.30;32.00;;;;;;5031060;28;20177;-66
2020/12/27 12:44:21;;;;;;;6.10;5.53;;;4.30;31.20;;;;;;5030609;28;20548;-67
2020/12/27 12:46:47;;;;;;;8.13;7.33;;;4.50;31.50;;;;;;5030937;28;20418;-68
2020/12/27 12:49:12;;;;;;;6.53;5.93;;;4.60;31.30;;;;;;5030448;28;20196;-67
2020/12/27 12:51:38;;;;;;;7.60;6.90;;;4.30;31.00;;;;;;5030550;28;20173;-66
2020/12/27 12:54:03;;;;;;;7.73;6.97;;;4.40;31.70;;;;;;5030772;28;20292;-67
2020/12/27 12:56:29;;;;;;;6.57;6.00;;;4.50;31.30;;;;;;5030798;28;20180;-68
2020/12/27 12:58:54;;;;;;;7.23;6.50;;;4.40;31.60;;;;;;5030469;28;20284;-67
2020/12/27 13:01:20;;;;;;;6.93;6.20;;;4.50;31.70;;;;;;5030811;28;20177;-67